createdAt,value
2022-12-03T00:00:20.232Z,96810.63
2022-12-03T00:02:46.858Z,96814.72
2022-12-03T00:05:15.969Z,96815.72
2022-12-03T00:07:47.425Z,96813.75
2022-12-03T00:10:14.059Z,96816.88
2022-12-03T00:12:42.897Z,96814.19
2022-12-03T00:15:10.289Z,96817.84
2022-12-03T00:17:37.022Z,96820.88
2022-12-03T00:20:07.815Z,96819.59
2022-12-03T00:22:34.498Z,96820.38
2022-12-03T00:25:01.018Z,96815.28
2022-12-03T00:27:27.567Z,96819.19
2022-12-03T00:29:54.080Z,96821.06
2022-12-03T00:32:22.879Z,96813.28
2022-12-03T00:34:52.035Z,96812.09
2022-12-03T00:37:18.939Z,96810.97
2022-12-03T00:39:45.438Z,96813.22
2022-12-03T00:42:15.054Z,96808.25
2022-12-03T00:44:43.920Z,96808.59
2022-12-03T00:47:10.632Z,96810.16
2022-12-03T00:49:39.727Z,96801.28
2022-12-03T00:52:06.208Z,96797.13
2022-12-03T00:54:34.871Z,96798.34
2022-12-03T00:57:03.681Z,96794.88
2022-12-03T00:59:30.261Z,96801.09
2022-12-03T01:01:59.977Z,96808.75
2022-12-03T01:04:26.716Z,96809.34
2022-12-03T01:06:55.936Z,96808.13
2022-12-03T01:09:22.460Z,96818.06
2022-12-03T01:11:49.093Z,96821.41
2022-12-03T01:14:18.201Z,96820.56
2022-12-03T01:16:51.052Z,96821.34
2022-12-03T01:19:18.258Z,96821.75
2022-12-03T01:21:48.932Z,96831.31
2022-12-03T01:24:18.493Z,96827.97
2022-12-03T01:26:49.924Z,96831.06
2022-12-03T01:29:18.853Z,96840.63
2022-12-03T01:32:04.013Z,96836.81
2022-12-03T01:34:30.671Z,96845.78
2022-12-03T01:36:57.411Z,96853.06
2022-12-03T01:39:24.325Z,96849.22
2022-12-03T01:41:52.967Z,96849.56
2022-12-03T01:44:29.326Z,96851.91
2022-12-03T01:46:58.657Z,96849.31
2022-12-03T01:49:31.923Z,96849.31
2022-12-03T01:51:59.397Z,96845.91
2022-12-03T01:54:31.197Z,96843.25
2022-12-03T01:56:58.434Z,96840.94
2022-12-03T01:59:36.328Z,96846.28
2022-12-03T02:02:13.388Z,96843.59
2022-12-03T02:04:40.163Z,96837.47
2022-12-03T02:07:26.732Z,96835.09
2022-12-03T02:09:55.464Z,96835.88
2022-12-03T02:12:34.262Z,96837.41
2022-12-03T02:15:01.726Z,96824.03
2022-12-03T02:17:30.958Z,96830.28
2022-12-03T02:19:58.644Z,96821.03
2022-12-03T02:22:31.304Z,96827.16
2022-12-03T02:25:06.777Z,96820.22
2022-12-03T02:27:33.380Z,96822.13
2022-12-03T02:29:59.882Z,96819.81
2022-12-03T02:32:28.659Z,96820.63
2022-12-03T02:34:55.571Z,96819.19
2022-12-03T02:37:30.708Z,96821.03
2022-12-03T02:40:00.116Z,96825.25
2022-12-03T02:42:36.140Z,96829.81
2022-12-03T02:45:08.766Z,96826.44
2022-12-03T02:47:40.671Z,96820.63
2022-12-03T02:50:09.074Z,96819.97
2022-12-03T02:52:36.048Z,96818.00
2022-12-03T02:55:07.909Z,96814.13
2022-12-03T02:57:37.908Z,96818.72
2022-12-03T03:00:09.593Z,96816.41
2022-12-03T03:02:40.470Z,96819.97
2022-12-03T03:05:10.686Z,96816.00
2022-12-03T03:07:40.000Z,96819.06
2022-12-03T03:10:09.340Z,96821.00
2022-12-03T03:12:41.190Z,96816.03
2022-12-03T03:15:09.541Z,96822.84
2022-12-03T03:17:36.130Z,96808.66
2022-12-03T03:20:04.999Z,96808.34
2022-12-03T03:22:36.779Z,96809.13
2022-12-03T03:25:07.023Z,96809.22
2022-12-03T03:27:34.292Z,96804.19
2022-12-03T03:30:01.229Z,96804.22
2022-12-03T03:32:28.829Z,96805.31
2022-12-03T03:34:56.610Z,96801.53
2022-12-03T03:37:28.148Z,96802.22
2022-12-03T03:39:59.398Z,96803.72
2022-12-03T03:42:26.032Z,96800.34
2022-12-03T03:44:52.875Z,96808.78
2022-12-03T03:47:20.135Z,96816.47
2022-12-03T03:49:50.820Z,96831.28
2022-12-03T03:52:20.598Z,96836.66
2022-12-03T03:54:49.661Z,96835.94
2022-12-03T03:57:16.298Z,96826.78
2022-12-03T03:59:43.189Z,96814.13
2022-12-03T04:02:26.999Z,96821.81
2022-12-03T04:04:54.497Z,96814.91
2022-12-03T04:07:21.205Z,96817.03
2022-12-03T04:09:47.729Z,96810.88
2022-12-03T04:12:32.873Z,96805.19
2022-12-03T04:14:59.489Z,96816.16
2022-12-03T04:17:28.503Z,96812.34
2022-12-03T04:19:55.059Z,96807.09
2022-12-03T04:22:42.138Z,96811.22
2022-12-03T04:25:28.532Z,96801.59
2022-12-03T04:28:13.690Z,96809.19
2022-12-03T04:30:40.389Z,96811.91
2022-12-03T04:33:28.099Z,96809.63
2022-12-03T04:35:54.715Z,96815.75
2022-12-03T04:38:23.535Z,96817.63
2022-12-03T04:41:01.271Z,96820.72
2022-12-03T04:43:29.291Z,96823.38
2022-12-03T04:45:55.956Z,96814.97
2022-12-03T04:48:22.759Z,96818.06
2022-12-03T04:50:51.558Z,96815.38
2022-12-03T04:53:18.466Z,96815.44
2022-12-03T04:55:45.285Z,96806.59
2022-12-03T04:58:14.271Z,96799.72
2022-12-03T05:00:43.036Z,96802.44
2022-12-03T05:03:09.573Z,96795.13
2022-12-03T05:05:38.352Z,96797.41
2022-12-03T05:08:05.233Z,96797.09
2022-12-03T05:10:31.825Z,96802.03
2022-12-03T05:12:58.361Z,96800.91
2022-12-03T05:15:24.907Z,96806.66
2022-12-03T05:17:51.469Z,96803.97
2022-12-03T05:20:39.154Z,96801.66
2022-12-03T05:23:10.688Z,96802.88
2022-12-03T05:25:39.740Z,96807.53
2022-12-03T05:28:07.200Z,96812.88
2022-12-03T05:30:33.893Z,96821.97
2022-12-03T05:33:00.538Z,96808.19
2022-12-03T05:35:27.223Z,96813.22
2022-12-03T05:37:56.085Z,96816.38
2022-12-03T05:40:25.567Z,96825.03
2022-12-03T05:42:54.617Z,96828.03
2022-12-03T05:45:21.253Z,96813.81
2022-12-03T05:47:48.170Z,96824.59
2022-12-03T05:50:15.292Z,96821.84
2022-12-03T05:52:44.110Z,96817.28
2022-12-03T05:55:13.891Z,96815.75
2022-12-03T05:57:42.752Z,96806.91
2022-12-03T06:00:14.676Z,96816.16
2022-12-03T06:02:41.756Z,96816.22
2022-12-03T06:05:10.051Z,96818.47
2022-12-03T06:07:39.225Z,96820.31
2022-12-03T06:10:08.010Z,96811.94
2022-12-03T06:12:39.302Z,96811.59
2022-12-03T06:15:07.025Z,96813.81
2022-12-03T06:17:38.457Z,96807.38
2022-12-03T06:20:08.337Z,96818.53
2022-12-03T06:22:37.393Z,96813.19
2022-12-03T06:25:07.099Z,96806.34
2022-12-03T06:27:34.410Z,96805.56
2022-12-03T06:30:03.244Z,96815.44
2022-12-03T06:32:31.856Z,96799.84
2022-12-03T06:34:58.481Z,96796.03
2022-12-03T06:37:25.012Z,96799.50
2022-12-03T06:39:51.548Z,96808.66
2022-12-03T06:42:18.133Z,96792.97
2022-12-03T06:44:44.630Z,96800.34
2022-12-03T06:47:11.223Z,96795.34
2022-12-03T06:49:37.992Z,96802.03
2022-12-03T06:52:09.025Z,96802.53
2022-12-03T06:54:38.146Z,96795.75
2022-12-03T06:57:04.712Z,96804.84
2022-12-03T06:59:35.779Z,96802.59
2022-12-03T07:02:04.928Z,96804.06
2022-12-03T07:04:31.539Z,96805.25
2022-12-03T07:06:58.090Z,96809.13
2022-12-03T07:09:26.966Z,96815.81
2022-12-03T07:11:53.526Z,96820.09
2022-12-03T07:14:22.326Z,96809.00
2022-12-03T07:16:48.988Z,96809.13
2022-12-03T07:19:17.999Z,96807.09
2022-12-03T07:21:49.346Z,96814.41
2022-12-03T07:24:18.342Z,96803.66
2022-12-03T07:26:44.847Z,96806.81
2022-12-03T07:29:11.432Z,96806.03
2022-12-03T07:31:40.278Z,96801.19
2022-12-03T07:34:09.155Z,96801.88
2022-12-03T07:36:38.083Z,96807.09
2022-12-03T07:39:09.467Z,96808.63
2022-12-03T07:41:35.998Z,96807.88
2022-12-03T07:44:02.637Z,96810.91
2022-12-03T07:46:31.597Z,96811.03
2022-12-03T07:48:58.198Z,96802.53
2022-12-03T07:51:30.465Z,96802.53
2022-12-03T07:54:00.954Z,96796.41
2022-12-03T07:56:27.529Z,96795.41
2022-12-03T07:58:56.431Z,96798.84
2022-12-03T08:01:25.425Z,96806.53
2022-12-03T08:03:52.060Z,96798.09
2022-12-03T08:06:21.652Z,96797.38
2022-12-03T08:08:48.155Z,96801.28
2022-12-03T08:11:15.344Z,96803.50
2022-12-03T08:13:44.343Z,96810.41
2022-12-03T08:16:22.206Z,96809.13
2022-12-03T08:18:52.846Z,96808.28
2022-12-03T08:21:22.589Z,96809.00
2022-12-03T08:23:51.347Z,96801.88
2022-12-03T08:26:23.286Z,96815.19
2022-12-03T08:28:55.662Z,96803.78
2022-12-03T08:31:32.526Z,96807.22
2022-12-03T08:34:16.772Z,96809.41
2022-12-03T08:36:43.812Z,96808.97
2022-12-03T08:39:22.282Z,96805.31
2022-12-03T08:42:13.970Z,96805.25
2022-12-03T08:44:41.216Z,96815.19
2022-12-03T08:47:20.072Z,96799.31
2022-12-03T08:50:06.649Z,96808.34
2022-12-03T08:52:37.352Z,96811.81
2022-12-03T08:55:34.730Z,96811.44
2022-12-03T08:58:24.927Z,96806.88
2022-12-03T09:01:06.119Z,96802.69
2022-12-03T09:03:35.413Z,96800.59
2022-12-03T09:06:07.042Z,96803.72
2022-12-03T09:08:36.331Z,96804.06
2022-12-03T09:11:02.955Z,96798.28
2022-12-03T09:13:29.459Z,96803.56
2022-12-03T09:15:58.471Z,96792.97
2022-12-03T09:18:24.966Z,96794.75
2022-12-03T09:20:51.464Z,96795.41
2022-12-03T09:23:20.453Z,96805.34
2022-12-03T09:25:47.003Z,96791.84
2022-12-03T09:28:13.519Z,96800.34
2022-12-03T09:30:40.370Z,96802.69
2022-12-03T09:33:10.571Z,96802.41
2022-12-03T09:35:39.328Z,96798.09
2022-12-03T09:38:05.884Z,96793.50
2022-12-03T09:40:34.853Z,96795.00
2022-12-03T09:43:01.674Z,96793.13
2022-12-03T09:45:28.240Z,96788.59
2022-12-03T09:47:55.174Z,96781.72
2022-12-03T09:50:24.303Z,96780.84
2022-12-03T09:52:54.867Z,96786.63
2022-12-03T09:55:25.609Z,96784.25
2022-12-03T09:57:57.083Z,96775.59
2022-12-03T10:00:29.751Z,96787.94
2022-12-03T10:03:02.419Z,96788.94
2022-12-03T10:05:33.275Z,96780.34
2022-12-03T10:08:10.746Z,96790.28
2022-12-03T10:10:44.823Z,96789.44
2022-12-03T10:13:25.452Z,96786.78
2022-12-03T10:15:56.007Z,96776.41
2022-12-03T10:18:27.723Z,96773.94
2022-12-03T10:20:59.694Z,96753.22
2022-12-03T10:23:33.616Z,96750.19
2022-12-03T10:26:05.040Z,96751.44
2022-12-03T10:28:37.874Z,96742.63
2022-12-03T10:31:09.823Z,96734.53
2022-12-03T10:33:48.171Z,96737.13
2022-12-03T10:36:26.071Z,96725.47
2022-12-03T10:39:10.053Z,96728.13
2022-12-03T10:41:38.400Z,96728.19
2022-12-03T10:44:26.075Z,96726.72
2022-12-03T10:47:13.583Z,96729.44
2022-12-03T10:50:00.900Z,96729.75
2022-12-03T10:52:27.528Z,96722.19
2022-12-03T10:54:54.415Z,96718.00
2022-12-03T10:57:22.329Z,96713.03
2022-12-03T10:59:49.201Z,96702.03
2022-12-03T11:02:21.923Z,96712.75
2022-12-03T11:04:52.102Z,96712.53
2022-12-03T11:07:22.596Z,96705.03
2022-12-03T11:09:54.768Z,96718.31
2022-12-03T11:12:27.444Z,96713.81
2022-12-03T11:14:54.533Z,96714.13
2022-12-03T11:17:43.015Z,96703.06
2022-12-03T11:20:27.147Z,96708.50
2022-12-03T11:22:55.329Z,96702.91
2022-12-03T11:25:24.815Z,96705.06
2022-12-03T11:28:13.021Z,96698.53
2022-12-03T11:30:48.796Z,96686.00
2022-12-03T11:33:37.408Z,96692.81
2022-12-03T11:36:03.963Z,96677.59
2022-12-03T11:38:53.216Z,96689.06
2022-12-03T11:41:28.001Z,96681.50
2022-12-03T11:43:57.463Z,96678.44
2022-12-03T11:46:38.578Z,96674.47
2022-12-03T11:49:21.428Z,96672.13
2022-12-03T11:51:49.004Z,96675.19
2022-12-03T11:54:22.075Z,96664.94
2022-12-03T11:56:52.140Z,96661.91
2022-12-03T11:59:18.901Z,96665.31
2022-12-03T12:01:46.239Z,96649.41
2022-12-03T12:04:50.822Z,96649.34
2022-12-03T12:07:38.691Z,96642.03
2022-12-03T12:10:05.682Z,96644.41
2022-12-03T12:12:45.603Z,96647.75
2022-12-03T12:15:39.933Z,96645.00
2022-12-03T12:18:44.566Z,96639.59
2022-12-03T12:21:42.707Z,96645.31
2022-12-03T12:24:28.157Z,96634.69
2022-12-03T12:26:57.925Z,96636.81
2022-12-03T12:29:26.687Z,96641.13
2022-12-03T12:32:02.597Z,96637.28
2022-12-03T12:34:31.648Z,96634.34
2022-12-03T12:37:00.347Z,96636.88
2022-12-03T12:39:30.927Z,96623.09
2022-12-03T12:41:57.951Z,96626.56
2022-12-03T12:44:27.239Z,96634.19
2022-12-03T12:46:54.969Z,96631.81
2022-12-03T12:49:26.737Z,96630.69
2022-12-03T12:51:53.830Z,96627.31
2022-12-03T12:54:20.607Z,96620.88
2022-12-03T12:56:50.267Z,96624.38
2022-12-03T12:59:16.762Z,96623.66
2022-12-03T13:01:47.482Z,96617.03
2022-12-03T13:04:20.430Z,96614.34
2022-12-03T13:06:49.164Z,96611.34
2022-12-03T13:09:19.425Z,96615.16
2022-12-03T13:11:53.221Z,96608.22
2022-12-03T13:14:21.260Z,96606.69
2022-12-03T13:16:49.558Z,96611.66
2022-12-03T13:19:24.112Z,96601.28
2022-12-03T13:21:52.921Z,96610.63
2022-12-03T13:24:45.379Z,96597.66
2022-12-03T13:27:17.606Z,96593.78
2022-12-03T13:29:47.554Z,96595.72
2022-12-03T13:32:18.865Z,96606.81
2022-12-03T13:34:46.680Z,96606.91
2022-12-03T13:37:19.650Z,96606.50
2022-12-03T13:39:51.387Z,96608.41
2022-12-03T13:42:41.915Z,96607.31
2022-12-03T13:45:14.170Z,96595.09
2022-12-03T13:47:41.967Z,96593.19
2022-12-03T13:50:37.475Z,96589.31
2022-12-03T13:53:42.282Z,96582.88
2022-12-03T13:56:30.086Z,96587.47
2022-12-03T13:59:00.460Z,96588.09
2022-12-03T14:01:30.760Z,96584.78
2022-12-03T14:03:59.846Z,96590.88
2022-12-03T14:06:26.732Z,96591.69
2022-12-03T14:08:53.423Z,96594.34
2022-12-03T14:11:38.508Z,96586.31
2022-12-03T14:14:07.363Z,96598.16
2022-12-03T14:16:36.054Z,96591.69
2022-12-03T14:19:03.165Z,96590.53
2022-12-03T14:21:32.046Z,96595.50
2022-12-03T14:23:58.573Z,96592.09
2022-12-03T14:26:25.138Z,96590.53
2022-12-03T14:28:51.658Z,96581.81
2022-12-03T14:31:18.236Z,96580.66
2022-12-03T14:33:44.886Z,96580.66
2022-12-03T14:36:14.024Z,96574.84
2022-12-03T14:38:42.762Z,96577.56
2022-12-03T14:41:29.272Z,96588.31
2022-12-03T14:43:55.763Z,96580.66
2022-12-03T14:46:24.667Z,96572.25
2022-12-03T14:48:51.308Z,96586.03
2022-12-03T14:51:17.808Z,96587.94
2022-12-03T14:53:44.338Z,96579.91
2022-12-03T14:56:11.052Z,96584.88
2022-12-03T14:58:37.652Z,96585.22
2022-12-03T15:01:04.450Z,96579.56
2022-12-03T15:03:31.187Z,96583.72
2022-12-03T15:06:00.773Z,96587.94
2022-12-03T15:08:28.751Z,96592.53
2022-12-03T15:10:56.345Z,96589.13
2022-12-03T15:13:25.078Z,96588.31
2022-12-03T15:15:54.263Z,96584.50
2022-12-03T15:18:20.842Z,96582.59
2022-12-03T15:20:47.347Z,96585.28
2022-12-03T15:23:14.702Z,96586.78
2022-12-03T15:25:41.613Z,96585.28
2022-12-03T15:28:12.661Z,96585.28
2022-12-03T15:30:39.176Z,96576.47
2022-12-03T15:33:05.803Z,96582.19
2022-12-03T15:35:35.103Z,96565.75
2022-12-03T15:38:01.921Z,96565.38
2022-12-03T15:40:28.525Z,96571.91
2022-12-03T15:42:55.045Z,96576.47
2022-12-03T15:45:21.594Z,96557.75
2022-12-03T15:47:50.780Z,96562.31
2022-12-03T15:50:20.042Z,96564.63
2022-12-03T15:52:46.604Z,96568.03
2022-12-03T15:55:13.261Z,96566.53
2022-12-03T15:57:39.880Z,96567.31
2022-12-03T16:00:10.204Z,96573.81
2022-12-03T16:02:39.451Z,96568.81
2022-12-03T16:05:12.464Z,96564.25
2022-12-03T16:07:42.135Z,96571.94
2022-12-03T16:10:13.258Z,96558.91
2022-12-03T16:12:42.440Z,96558.50
2022-12-03T16:15:11.692Z,96558.91
2022-12-03T16:17:40.438Z,96566.91
2022-12-03T16:20:07.803Z,96568.84
2022-12-03T16:22:34.305Z,96569.22
2022-12-03T16:25:00.826Z,96559.66
2022-12-03T16:27:29.937Z,96556.59
2022-12-03T16:29:57.140Z,96565.03
2022-12-03T16:32:28.546Z,96565.06
2022-12-03T16:34:55.252Z,96560.84
2022-12-03T16:37:21.819Z,96559.28
2022-12-03T16:39:48.405Z,96559.63
2022-12-03T16:42:17.460Z,96568.81
2022-12-03T16:45:02.752Z,96553.16
2022-12-03T16:47:34.353Z,96556.97
2022-12-03T16:50:09.855Z,96566.09
2022-12-03T16:52:41.563Z,96559.63
2022-12-03T16:55:10.655Z,96556.91
2022-12-03T16:57:39.413Z,96564.19
2022-12-03T17:00:07.390Z,96557.31
2022-12-03T17:02:34.017Z,96569.13
2022-12-03T17:05:00.577Z,96560.31
2022-12-03T17:07:27.228Z,96553.41
2022-12-03T17:09:58.375Z,96555.28
2022-12-03T17:12:37.442Z,96548.44
2022-12-03T17:15:18.724Z,96552.19
2022-12-03T17:17:45.286Z,96554.50
2022-12-03T17:20:13.358Z,96553.38
2022-12-03T17:22:40.243Z,96539.63
2022-12-03T17:25:09.936Z,96541.09
2022-12-03T17:27:43.347Z,96535.81
2022-12-03T17:30:11.811Z,96541.53
2022-12-03T17:32:40.614Z,96543.00
2022-12-03T17:35:07.645Z,96532.31
2022-12-03T17:37:37.119Z,96540.69
2022-12-03T17:40:09.268Z,96533.06
2022-12-03T17:42:36.047Z,96525.81
2022-12-03T17:45:03.295Z,96515.13
2022-12-03T17:47:32.425Z,96527.41
2022-12-03T17:50:01.189Z,96526.59
2022-12-03T17:52:27.737Z,96515.53
2022-12-03T17:55:12.725Z,96521.59
2022-12-03T17:57:40.763Z,96525.81
2022-12-03T18:00:08.022Z,96527.72
2022-12-03T18:02:34.528Z,96511.59
2022-12-03T18:05:01.110Z,96508.16
2022-12-03T18:07:27.682Z,96513.91
2022-12-03T18:09:56.879Z,96515.47
2022-12-03T18:12:23.924Z,96516.63
2022-12-03T18:14:52.668Z,96518.94
2022-12-03T18:17:21.522Z,96519.25
2022-12-03T18:19:48.098Z,96521.22
2022-12-03T18:22:17.298Z,96523.13
2022-12-03T18:24:50.244Z,96529.16
2022-12-03T18:27:18.335Z,96531.44
2022-12-03T18:29:44.936Z,96530.31
2022-12-03T18:32:28.313Z,96528.38
2022-12-03T18:34:58.498Z,96520.44
2022-12-03T18:37:29.727Z,96523.78
2022-12-03T18:39:59.480Z,96519.94
2022-12-03T18:42:26.750Z,96519.56
2022-12-03T18:44:55.413Z,96513.88
2022-12-03T18:47:28.772Z,96528.69
2022-12-03T18:49:56.357Z,96529.81
2022-12-03T18:52:26.580Z,96532.13
2022-12-03T18:54:54.446Z,96524.13
2022-12-03T18:57:23.583Z,96528.78
2022-12-03T18:59:50.167Z,96536.38
2022-12-03T19:02:38.964Z,96524.88
2022-12-03T19:05:06.681Z,96529.81
2022-12-03T19:07:35.563Z,96524.09
2022-12-03T19:10:04.633Z,96532.91
2022-12-03T19:12:31.723Z,96535.56
2022-12-03T19:15:01.367Z,96536.66
2022-12-03T19:17:32.787Z,96544.28
2022-12-03T19:20:01.738Z,96522.53
2022-12-03T19:22:30.758Z,96521.75
2022-12-03T19:24:57.316Z,96527.16
2022-12-03T19:27:26.454Z,96532.41
2022-12-03T19:29:55.540Z,96526.00
2022-12-03T19:32:24.744Z,96533.28
2022-12-03T19:34:51.301Z,96533.94
2022-12-03T19:37:20.375Z,96535.50
2022-12-03T19:39:53.269Z,96533.50
2022-12-03T19:42:22.278Z,96530.41
2022-12-03T19:44:51.064Z,96528.16
2022-12-03T19:47:19.930Z,96532.06
2022-12-03T19:49:46.494Z,96516.31
2022-12-03T19:52:13.024Z,96529.69
2022-12-03T19:54:39.551Z,96521.25
2022-12-03T19:57:09.718Z,96529.28
2022-12-03T19:59:36.314Z,96527.06
2022-12-03T20:02:02.960Z,96519.31
2022-12-03T20:04:29.657Z,96521.66
2022-12-03T20:06:58.427Z,96527.75
2022-12-03T20:09:25.001Z,96530.09
2022-12-03T20:11:56.303Z,96523.97
2022-12-03T20:14:25.171Z,96531.13
2022-12-03T20:16:56.664Z,96521.22
2022-12-03T20:19:23.302Z,96513.53
2022-12-03T20:21:49.849Z,96516.59
2022-12-03T20:24:17.988Z,96507.88
2022-12-03T20:26:46.881Z,96520.06
2022-12-03T20:29:13.615Z,96539.50
2022-12-03T20:31:40.408Z,96533.75
2022-12-03T20:34:07.280Z,96525.38
2022-12-03T20:36:33.929Z,96513.16
2022-12-03T20:39:04.087Z,96513.56
2022-12-03T20:41:34.032Z,96510.56
2022-12-03T20:44:00.551Z,96514.28
2022-12-03T20:46:29.811Z,96518.50
2022-12-03T20:48:57.450Z,96517.72
2022-12-03T20:51:27.476Z,96519.63
2022-12-03T20:53:57.562Z,96505.84
2022-12-03T20:56:34.743Z,96513.91
2022-12-03T20:59:10.404Z,96501.38
2022-12-03T21:01:40.407Z,96505.19
2022-12-03T21:04:10.776Z,96494.78
2022-12-03T21:06:37.731Z,96517.25
2022-12-03T21:09:08.214Z,96515.44
2022-12-03T21:11:36.167Z,96506.28
2022-12-03T21:14:05.630Z,96510.09
2022-12-03T21:17:07.279Z,96510.94
2022-12-03T21:19:26.085Z,96500.19
2022-12-03T21:21:52.716Z,96503.59
2022-12-03T21:24:24.101Z,96508.56
2022-12-03T21:26:50.614Z,96504.00
2022-12-03T21:29:17.215Z,96508.56
2022-12-03T21:31:46.671Z,96499.78
2022-12-03T21:34:13.225Z,96506.22
2022-12-03T21:36:40.104Z,96508.56
2022-12-03T21:39:08.007Z,96497.94
2022-12-03T21:41:37.056Z,96493.69
2022-12-03T21:44:04.435Z,96487.19
2022-12-03T21:47:09.877Z,96487.59
2022-12-03T21:49:22.726Z,96503.72
2022-12-03T21:51:49.628Z,96508.66
2022-12-03T21:54:16.248Z,96506.34
2022-12-03T21:56:42.795Z,96503.69
2022-12-03T21:59:16.710Z,96491.91
2022-12-03T22:01:47.106Z,96490.41
2022-12-03T22:04:14.025Z,96477.53
2022-12-03T22:06:40.597Z,96468.22
2022-12-03T22:09:09.552Z,96480.81
2022-12-03T22:11:41.387Z,96481.56
2022-12-03T22:14:10.565Z,96495.72
2022-12-03T22:16:40.110Z,96503.38
2022-12-03T22:19:06.615Z,96496.91
2022-12-03T22:21:33.204Z,96493.84
2022-12-03T22:24:01.989Z,96498.03
2022-12-03T22:26:28.587Z,96493.00
2022-12-03T22:28:58.169Z,96497.59
2022-12-03T22:31:24.769Z,96503.72
2022-12-03T22:33:56.173Z,96509.16
2022-12-03T22:36:22.777Z,96509.44
2022-12-03T22:38:52.199Z,96512.16
2022-12-03T22:41:19.860Z,96505.69
2022-12-03T22:43:47.554Z,96493.81
2022-12-03T22:46:17.209Z,96495.00
2022-12-03T22:48:45.594Z,96486.19
2022-12-03T22:51:21.310Z,96493.06
2022-12-03T22:53:48.529Z,96477.84
2022-12-03T22:56:18.641Z,96491.56
2022-12-03T22:58:45.185Z,96493.16
2022-12-03T23:01:39.119Z,96492.31
2022-12-03T23:04:07.078Z,96495.06
2022-12-03T23:06:39.226Z,96503.03
2022-12-03T23:09:07.713Z,96491.59
2022-12-03T23:11:34.448Z,96491.63
2022-12-03T23:14:01.020Z,96485.19
2022-12-03T23:16:30.447Z,96491.66
2022-12-03T23:19:03.209Z,96484.09
2022-12-03T23:21:32.254Z,96491.72
2022-12-03T23:24:06.644Z,96497.75
2022-12-03T23:26:37.867Z,96488.59
2022-12-03T23:29:08.509Z,96496.25
2022-12-03T23:31:35.469Z,96491.25
2022-12-03T23:34:04.965Z,96482.53
2022-12-03T23:36:32.945Z,96474.44
2022-12-03T23:39:01.818Z,96481.28
2022-12-03T23:41:33.255Z,96468.34
2022-12-03T23:44:02.006Z,96471.38
2022-12-03T23:46:28.692Z,96483.66
2022-12-03T23:48:55.578Z,96482.88
2022-12-03T23:51:24.382Z,96485.91
2022-12-03T23:53:53.070Z,96478.63
2022-12-03T23:56:28.314Z,96477.13
2022-12-03T23:58:57.890Z,96473.69
